South Clinton, Illinois
Current Conditions -  °F | °C
As of 11:15 AM on Saturday 25 Oct 2014 (Local Time) from KAAA Reporting Station
Clear Clear  
Wind Chill: 70°   Ceiling: Unl
Heat Index: 70°   Visibility: 10mi
Dew Point: 58°   Wind: 5mph
Humidity: 65%   Direction: 280°W
Pressure: 30"   Gusts: NA
Location:  40.143°N, 88.9637°W
Report Text: KAAA 251615Z AUTO 28004KT 10SM CLR 21/15 A3000 RMK AO2 T02120145
Loading
Personal Weather Stations






























Interactive Weather Map
Tropical Storm Tracking
New forecast layout! Learn more

10-Day Weather Forecast

Advertisements
Track Severe Weather on mobile